createdAt,value
2022-12-19T00:00:26.381Z,2.50
2022-12-19T00:02:54.458Z,3.53
2022-12-19T00:05:23.916Z,2.28
2022-12-19T00:07:53.920Z,2.92
2022-12-19T00:10:21.840Z,2.85
2022-12-19T00:12:49.750Z,2.72
2022-12-19T00:15:17.716Z,3.17
2022-12-19T00:17:45.439Z,2.55
2022-12-19T00:20:13.506Z,2.60
2022-12-19T00:22:47.306Z,2.55
2022-12-19T00:25:17.881Z,2.65
2022-12-19T00:27:47.078Z,3.10
2022-12-19T00:30:15.099Z,2.60
2022-12-19T00:32:43.270Z,2.17
2022-12-19T00:35:11.492Z,1.95
2022-12-19T00:37:41.686Z,1.92
2022-12-19T00:40:18.896Z,2.50
2022-12-19T00:42:53.177Z,2.83
2022-12-19T00:45:21.694Z,1.60
2022-12-19T00:47:49.661Z,2.63
2022-12-19T00:50:17.580Z,2.28
2022-12-19T00:52:45.649Z,2.08
2022-12-19T00:55:18.923Z,2.60
2022-12-19T00:57:49.571Z,2.42
2022-12-19T01:00:20.406Z,2.60
2022-12-19T01:02:48.512Z,1.98
2022-12-19T01:05:16.492Z,1.75
2022-12-19T01:07:44.409Z,2.67
2022-12-19T01:10:12.426Z,2.30
2022-12-19T01:12:48.089Z,2.17
2022-12-19T01:15:18.860Z,2.20
2022-12-19T01:17:46.829Z,2.53
2022-12-19T01:20:16.023Z,2.45
2022-12-19T01:22:45.165Z,2.10
2022-12-19T01:25:15.142Z,1.92
2022-12-19T01:27:43.043Z,2.63
2022-12-19T01:30:11.819Z,1.85
2022-12-19T01:32:42.773Z,2.10
2022-12-19T01:35:20.682Z,1.73
2022-12-19T01:37:50.022Z,1.65
2022-12-19T01:40:18.095Z,2.70
2022-12-19T01:42:46.010Z,1.98
2022-12-19T01:45:34.385Z,2.03
2022-12-19T01:48:13.433Z,2.38
2022-12-19T01:50:55.998Z,1.75
2022-12-19T01:53:33.024Z,1.80
2022-12-19T01:56:09.516Z,2.40
2022-12-19T01:58:39.207Z,2.45
2022-12-19T02:01:07.258Z,1.88
2022-12-19T02:03:38.633Z,1.98
2022-12-19T02:06:07.007Z,1.63
2022-12-19T02:08:36.619Z,1.73
2022-12-19T02:11:04.582Z,1.77
2022-12-19T02:13:33.780Z,1.45
2022-12-19T02:16:04.063Z,1.70
2022-12-19T02:18:38.325Z,2.45
2022-12-19T02:21:17.038Z,2.15
2022-12-19T02:23:59.758Z,1.63
2022-12-19T02:26:44.313Z,2.20
2022-12-19T02:29:22.118Z,1.52
2022-12-19T02:31:56.968Z,1.52
2022-12-19T02:34:30.854Z,2.10
2022-12-19T02:37:06.830Z,1.83
2022-12-19T02:39:38.665Z,2.20
2022-12-19T02:42:07.918Z,2.55
2022-12-19T02:44:41.670Z,1.90
2022-12-19T02:47:11.382Z,1.98
2022-12-19T02:49:40.076Z,2.03
2022-12-19T02:52:10.288Z,1.67
2022-12-19T02:54:45.088Z,1.40
2022-12-19T02:57:19.997Z,1.90
2022-12-19T02:59:53.240Z,2.65
2022-12-19T03:02:29.874Z,2.25
2022-12-19T03:05:00.901Z,2.20
2022-12-19T03:07:32.719Z,2.17
2022-12-19T03:10:04.683Z,2.00
2022-12-19T03:12:35.558Z,1.90
2022-12-19T03:15:03.994Z,1.88
2022-12-19T03:17:37.759Z,2.33
2022-12-19T03:20:09.499Z,1.63
2022-12-19T03:22:37.572Z,1.65
2022-12-19T03:25:05.743Z,1.92
2022-12-19T03:27:35.708Z,2.05
2022-12-19T03:30:05.579Z,1.85
2022-12-19T03:32:34.714Z,1.50
2022-12-19T03:35:05.827Z,1.50
2022-12-19T03:37:35.832Z,1.80
2022-12-19T03:40:06.201Z,1.58
2022-12-19T03:42:52.794Z,2.13
2022-12-19T03:45:25.138Z,2.15
2022-12-19T03:47:57.347Z,1.80
2022-12-19T03:50:29.464Z,1.48
2022-12-19T03:53:03.421Z,1.80
2022-12-19T03:55:32.893Z,1.67
2022-12-19T03:58:04.219Z,1.83
2022-12-19T04:00:33.148Z,1.58
2022-12-19T04:03:02.013Z,1.40
2022-12-19T04:05:31.396Z,1.63
2022-12-19T04:08:00.592Z,2.08
2022-12-19T04:10:28.926Z,1.80
2022-12-19T04:13:00.316Z,1.85
2022-12-19T04:15:34.382Z,1.40
2022-12-19T04:18:02.658Z,2.00
2022-12-19T04:20:32.824Z,1.75
2022-12-19T04:23:02.602Z,1.65
2022-12-19T04:25:32.282Z,1.73
2022-12-19T04:28:02.867Z,1.80
2022-12-19T04:30:31.057Z,1.73
2022-12-19T04:33:05.317Z,1.10
2022-12-19T04:35:37.623Z,1.92
2022-12-19T04:38:05.495Z,2.03
2022-12-19T04:40:40.683Z,1.73
2022-12-19T04:43:09.250Z,1.50
2022-12-19T04:45:37.264Z,1.65
2022-12-19T04:48:05.403Z,1.83
2022-12-19T04:50:37.617Z,2.10
2022-12-19T04:53:05.714Z,1.88
2022-12-19T04:55:33.713Z,1.20
2022-12-19T04:58:01.729Z,1.50
2022-12-19T05:00:29.731Z,2.20
2022-12-19T05:02:57.891Z,1.30
2022-12-19T05:05:26.138Z,1.65
2022-12-19T05:07:56.364Z,1.08
2022-12-19T05:10:24.275Z,1.38
2022-12-19T05:12:52.345Z,1.83
2022-12-19T05:15:20.259Z,1.48
2022-12-19T05:17:48.177Z,1.60
2022-12-19T05:20:16.103Z,0.85
2022-12-19T05:22:44.104Z,1.50
2022-12-19T05:25:13.524Z,1.40
2022-12-19T05:27:41.534Z,1.63
2022-12-19T05:30:10.015Z,1.23
2022-12-19T05:32:37.961Z,1.67
2022-12-19T05:35:06.203Z,1.40
2022-12-19T05:37:36.117Z,1.48
2022-12-19T05:40:04.102Z,1.65
2022-12-19T05:42:33.145Z,1.65
2022-12-19T05:45:00.886Z,1.67
2022-12-19T05:47:28.914Z,1.65
2022-12-19T05:49:56.890Z,1.42
2022-12-19T05:52:25.210Z,1.45
2022-12-19T05:54:53.280Z,1.35
2022-12-19T05:57:21.240Z,2.00
2022-12-19T05:59:50.515Z,2.00
2022-12-19T06:02:18.533Z,1.50
2022-12-19T06:04:46.569Z,1.83
2022-12-19T06:07:19.195Z,2.10
2022-12-19T06:09:48.852Z,2.08
2022-12-19T06:12:16.825Z,1.73
2022-12-19T06:14:44.787Z,1.27
2022-12-19T06:17:13.999Z,2.03
2022-12-19T06:19:41.891Z,1.85
2022-12-19T06:22:09.820Z,1.85
2022-12-19T06:24:37.778Z,1.95
2022-12-19T06:27:05.714Z,1.70
2022-12-19T06:29:33.865Z,2.80
2022-12-19T06:32:01.818Z,2.28
2022-12-19T06:35:02.392Z,1.75
2022-12-19T06:37:19.226Z,1.42
2022-12-19T06:39:47.054Z,2.28
2022-12-19T06:42:25.719Z,1.85
2022-12-19T06:44:55.934Z,2.13
2022-12-19T06:47:25.312Z,2.25
2022-12-19T06:49:54.668Z,2.75
2022-12-19T06:52:22.655Z,1.75
2022-12-19T06:54:50.562Z,2.20
2022-12-19T06:57:18.597Z,2.90
2022-12-19T06:59:46.509Z,2.58
2022-12-19T07:02:22.936Z,2.40
2022-12-19T07:04:52.390Z,2.65
2022-12-19T07:07:21.972Z,2.42
2022-12-19T07:09:50.138Z,2.60
2022-12-19T07:12:18.035Z,1.65
2022-12-19T07:14:50.181Z,2.20
2022-12-19T07:17:20.986Z,2.03
2022-12-19T07:19:51.533Z,1.92
2022-12-19T07:22:19.399Z,2.70
2022-12-19T07:24:48.852Z,2.47
2022-12-19T07:27:16.715Z,2.33
2022-12-19T07:29:44.706Z,2.45
2022-12-19T07:32:12.587Z,2.20
2022-12-19T07:34:40.516Z,2.08
2022-12-19T07:37:08.355Z,2.95
2022-12-19T07:39:36.212Z,1.90
2022-12-19T07:42:05.346Z,2.30
2022-12-19T07:44:39.776Z,1.73
2022-12-19T07:47:10.602Z,1.77
2022-12-19T07:49:38.566Z,1.75
2022-12-19T07:52:06.446Z,1.60
2022-12-19T07:54:35.166Z,1.90
2022-12-19T07:57:03.378Z,2.10
2022-12-19T07:59:38.805Z,1.75
2022-12-19T08:02:08.092Z,1.17
2022-12-19T08:04:36.249Z,2.20
2022-12-19T08:07:04.170Z,1.23
2022-12-19T08:09:32.078Z,1.65
2022-12-19T08:12:00.202Z,1.38
2022-12-19T08:14:28.327Z,1.52
2022-12-19T08:19:45.507Z,2.22
2022-12-19T08:22:13.460Z,1.27
2022-12-19T08:24:41.433Z,1.60
2022-12-19T08:27:09.256Z,1.67
2022-12-19T08:29:37.343Z,1.75
2022-12-19T08:32:06.585Z,1.35
2022-12-19T08:34:34.542Z,1.60
2022-12-19T08:37:02.307Z,2.15
2022-12-19T08:39:29.986Z,1.50
2022-12-19T08:41:57.934Z,1.60
2022-12-19T08:44:25.852Z,1.45
2022-12-19T08:46:53.720Z,1.30
2022-12-19T08:49:23.116Z,1.40
2022-12-19T08:51:51.168Z,1.13
2022-12-19T08:54:19.195Z,1.55
2022-12-19T08:56:47.320Z,1.75
2022-12-19T08:59:18.760Z,1.45
2022-12-19T09:01:58.798Z,1.60
2022-12-19T09:05:59.414Z,1.70
2022-12-19T09:07:16.638Z,1.48
2022-12-19T09:09:44.676Z,1.55
2022-12-19T09:12:13.574Z,0.80
2022-12-19T09:14:41.580Z,1.55
2022-12-19T09:17:10.013Z,1.80
2022-12-19T09:19:40.728Z,1.40
2022-12-19T09:22:12.567Z,1.30
2022-12-19T09:24:40.545Z,1.20
2022-12-19T09:27:08.451Z,1.25
2022-12-19T09:29:36.364Z,1.70
2022-12-19T09:32:04.396Z,0.70
2022-12-19T09:34:36.854Z,0.60
2022-12-19T09:37:08.338Z,1.23
2022-12-19T09:39:36.666Z,1.10
2022-12-19T09:42:10.084Z,1.67
2022-12-19T09:44:50.090Z,1.48
2022-12-19T09:47:19.335Z,1.48
2022-12-19T09:49:48.295Z,1.30
2022-12-19T09:52:19.875Z,1.50
2022-12-19T09:54:50.869Z,1.40
2022-12-19T09:57:21.601Z,1.40
2022-12-19T09:59:52.435Z,1.45
2022-12-19T10:02:34.459Z,1.70
2022-12-19T10:05:23.055Z,0.90
2022-12-19T10:08:08.366Z,1.10
2022-12-19T10:12:41.098Z,1.35
2022-12-19T10:13:37.672Z,1.27
2022-12-19T10:16:08.792Z,1.20
2022-12-19T10:18:43.943Z,1.20
2022-12-19T10:21:14.328Z,0.95
2022-12-19T10:23:52.275Z,1.20
2022-12-19T10:26:20.860Z,1.08
2022-12-19T10:29:00.216Z,1.17
2022-12-19T10:31:31.556Z,1.20
2022-12-19T10:34:03.753Z,1.50
2022-12-19T10:37:04.423Z,0.93
2022-12-19T10:39:27.721Z,1.15
2022-12-19T10:41:57.107Z,1.40
2022-12-19T10:44:26.611Z,1.33
2022-12-19T10:46:54.659Z,1.00
2022-12-19T10:49:23.405Z,1.33
2022-12-19T10:51:58.998Z,0.85
2022-12-19T10:54:38.486Z,1.20
2022-12-19T10:57:18.829Z,1.52
2022-12-19T10:59:55.162Z,1.08
2022-12-19T11:02:28.640Z,1.73
2022-12-19T11:04:56.721Z,1.10
2022-12-19T11:07:24.897Z,1.42
2022-12-19T11:10:20.552Z,1.20
2022-12-19T11:18:27.767Z,1.30
2022-12-19T11:20:25.205Z,1.20
2022-12-19T11:29:16.097Z,1.42
2022-12-19T11:29:37.894Z,0.60
2022-12-19T11:30:09.513Z,1.80
2022-12-19T11:30:46.772Z,1.30
2022-12-19T11:33:14.603Z,1.23
2022-12-19T11:35:50.001Z,1.20
2022-12-19T11:38:19.524Z,1.00
2022-12-19T11:40:49.560Z,1.30
2022-12-19T11:46:19.437Z,0.63
2022-12-19T11:48:53.473Z,1.00
2022-12-19T11:51:24.413Z,0.88
2022-12-19T11:53:58.170Z,0.70
2022-12-19T11:56:27.896Z,1.13
2022-12-19T11:58:59.062Z,0.90
2022-12-19T12:01:39.089Z,0.80
2022-12-19T12:04:14.640Z,1.10
2022-12-19T12:06:48.873Z,0.80
2022-12-19T12:11:34.907Z,0.80
2022-12-19T12:19:08.564Z,1.20
2022-12-19T12:29:23.587Z,1.10
2022-12-19T12:31:00.804Z,0.93
2022-12-19T12:31:13.350Z,0.93
2022-12-19T12:31:15.790Z,1.30
2022-12-19T12:31:45.835Z,0.93
2022-12-19T12:31:47.729Z,1.10
2022-12-19T12:35:30.455Z,1.00
2022-12-19T12:38:31.685Z,1.10
2022-12-19T12:41:08.024Z,1.00
2022-12-19T12:43:57.093Z,1.08
2022-12-19T12:46:27.736Z,1.20
2022-12-19T12:48:58.604Z,1.20
2022-12-19T12:51:28.308Z,1.40
2022-12-19T12:53:59.196Z,1.00
2022-12-19T12:56:27.320Z,1.02
2022-12-19T12:59:06.399Z,0.98
2022-12-19T13:01:38.104Z,1.30
2022-12-19T13:04:08.176Z,1.20
2022-12-19T13:06:38.732Z,1.10
2022-12-19T13:09:19.878Z,1.25
2022-12-19T13:12:06.178Z,1.20
2022-12-19T13:14:47.762Z,1.27
2022-12-19T13:17:19.972Z,1.45
2022-12-19T13:19:55.615Z,1.05
2022-12-19T13:22:38.233Z,0.85
2022-12-19T13:25:21.050Z,1.20
2022-12-19T13:27:52.513Z,1.00
2022-12-19T13:30:21.247Z,1.05
2022-12-19T13:33:17.041Z,0.93
2022-12-19T13:37:12.378Z,1.00
2022-12-19T13:39:58.423Z,1.40
2022-12-19T13:41:59.039Z,1.27
2022-12-19T13:44:27.838Z,0.90
2022-12-19T13:46:56.459Z,1.23
2022-12-19T13:49:28.861Z,1.10
2022-12-19T13:52:00.035Z,1.15
2022-12-19T13:54:32.454Z,1.30
2022-12-19T13:57:04.222Z,1.10
2022-12-19T13:59:39.281Z,1.23
2022-12-19T14:02:08.751Z,1.02
2022-12-19T14:04:36.764Z,1.02
2022-12-19T14:07:06.117Z,1.27
2022-12-19T14:11:26.216Z,1.00
2022-12-19T14:13:57.508Z,1.10
2022-12-19T14:15:33.527Z,1.20
2022-12-19T14:18:41.632Z,1.27
2022-12-19T14:22:07.802Z,1.42
2022-12-19T14:23:43.369Z,1.10
2022-12-19T14:28:18.146Z,1.00
2022-12-19T14:29:04.393Z,1.20
2022-12-19T14:31:33.224Z,1.15
2022-12-19T14:36:50.924Z,1.00
2022-12-19T14:39:24.938Z,1.10
2022-12-19T14:42:20.560Z,0.90
2022-12-19T14:54:03.653Z,1.25
2022-12-19T14:54:03.916Z,0.98
2022-12-19T14:54:10.929Z,1.00
2022-12-19T14:55:11.981Z,0.98
2022-12-19T14:57:00.985Z,0.80
2022-12-19T14:59:35.470Z,1.58
2022-12-19T15:02:11.662Z,0.80
2022-12-19T15:04:52.199Z,0.88
2022-12-19T15:07:23.795Z,0.90
2022-12-19T15:11:04.093Z,1.08
2022-12-19T15:14:50.791Z,0.90
2022-12-19T15:15:58.973Z,1.10
2022-12-19T15:18:28.511Z,0.80
2022-12-19T15:20:57.556Z,1.05
2022-12-19T15:23:25.829Z,0.80
2022-12-19T15:26:03.989Z,1.23
2022-12-19T15:28:37.130Z,1.00
2022-12-19T15:31:08.132Z,1.10
2022-12-19T15:33:40.700Z,1.10
2022-12-19T15:36:16.102Z,1.10
2022-12-19T15:38:43.925Z,1.52
2022-12-19T15:41:14.638Z,1.33
2022-12-19T15:46:32.372Z,1.05
2022-12-19T15:49:00.241Z,1.20
2022-12-19T15:51:27.955Z,1.42
2022-12-19T15:54:04.190Z,1.17
2022-12-19T15:56:46.669Z,1.55
2022-12-19T15:59:36.525Z,1.40
2022-12-19T16:02:14.697Z,1.58
2022-12-19T16:04:42.781Z,1.30
2022-12-19T16:07:14.281Z,1.38
2022-12-19T16:09:42.107Z,1.65
2022-12-19T16:12:12.017Z,1.52
2022-12-19T16:14:39.819Z,1.52
2022-12-19T16:17:07.725Z,1.20
2022-12-19T16:19:37.028Z,1.20
2022-12-19T16:22:11.193Z,1.40
2022-12-19T16:24:38.848Z,1.48
2022-12-19T16:27:06.533Z,1.40
2022-12-19T16:29:36.168Z,1.50
2022-12-19T16:32:07.286Z,1.75
2022-12-19T16:34:35.131Z,1.73
2022-12-19T16:37:04.319Z,1.38
2022-12-19T16:39:32.313Z,1.33
2022-12-19T16:42:00.211Z,1.50
2022-12-19T16:44:28.062Z,1.40
2022-12-19T16:46:55.825Z,1.23
2022-12-19T16:49:23.843Z,1.50
2022-12-19T16:51:52.038Z,1.15
2022-12-19T16:54:21.119Z,1.20
2022-12-19T16:56:49.391Z,1.40
2022-12-19T16:59:18.803Z,1.00
2022-12-19T17:01:46.928Z,1.20
2022-12-19T17:04:15.818Z,1.45
2022-12-19T17:06:43.650Z,1.08
2022-12-19T17:09:14.522Z,1.20
2022-12-19T17:11:45.652Z,1.27
2022-12-19T17:14:16.331Z,0.88
2022-12-19T17:16:44.232Z,1.33
2022-12-19T17:19:17.886Z,1.40
2022-12-19T17:21:45.819Z,1.20
2022-12-19T17:24:14.559Z,1.30
2022-12-19T17:26:44.108Z,1.20
2022-12-19T17:29:12.194Z,1.10
2022-12-19T17:31:40.597Z,1.20
2022-12-19T17:34:09.607Z,1.45
2022-12-19T17:36:38.189Z,0.82
2022-12-19T17:39:12.442Z,1.00
2022-12-19T17:41:39.993Z,1.35
2022-12-19T17:44:08.913Z,1.40
2022-12-19T17:46:37.380Z,1.35
2022-12-19T17:49:05.245Z,1.42
2022-12-19T17:51:32.843Z,1.50
2022-12-19T17:54:00.443Z,1.30
2022-12-19T17:56:29.616Z,1.63
2022-12-19T17:58:57.307Z,1.67
2022-12-19T18:01:26.527Z,1.70
2022-12-19T18:03:56.259Z,1.50
2022-12-19T18:06:23.993Z,1.60
2022-12-19T18:08:51.656Z,1.35
2022-12-19T18:11:20.974Z,1.50
2022-12-19T18:13:49.148Z,1.67
2022-12-19T18:16:18.557Z,1.60
2022-12-19T18:18:48.081Z,1.58
2022-12-19T18:21:18.700Z,1.73
2022-12-19T18:23:46.497Z,1.52
2022-12-19T18:26:14.789Z,1.65
2022-12-19T18:28:43.135Z,1.70
2022-12-19T18:31:13.999Z,1.83
2022-12-19T18:33:42.858Z,1.52
2022-12-19T18:36:16.995Z,1.67
2022-12-19T18:38:44.721Z,1.77
2022-12-19T18:41:12.821Z,1.42
2022-12-19T18:43:40.579Z,1.70
2022-12-19T18:46:11.989Z,1.63
2022-12-19T18:48:39.670Z,1.88
2022-12-19T18:51:07.519Z,1.52
2022-12-19T18:53:36.670Z,1.50
2022-12-19T18:56:05.143Z,1.55
2022-12-19T18:58:32.952Z,2.00
2022-12-19T19:01:01.639Z,1.85
2022-12-19T19:03:30.758Z,1.85
2022-12-19T19:05:58.549Z,1.70
2022-12-19T19:08:27.325Z,1.85
2022-12-19T19:11:11.332Z,1.80
2022-12-19T19:13:39.077Z,1.90
2022-12-19T19:16:14.423Z,1.85
2022-12-19T19:18:42.937Z,1.73
2022-12-19T19:21:12.369Z,1.90
2022-12-19T19:23:42.596Z,1.90
2022-12-19T19:26:12.138Z,1.95
2022-12-19T19:28:39.931Z,1.80
2022-12-19T19:31:08.590Z,1.70
2022-12-19T19:33:39.012Z,1.90
2022-12-19T19:36:12.137Z,2.00
2022-12-19T19:38:41.084Z,2.05
2022-12-19T19:41:09.174Z,1.80
2022-12-19T19:43:38.324Z,1.90
2022-12-19T19:46:06.278Z,2.05
2022-12-19T19:48:34.024Z,2.10
2022-12-19T19:51:01.849Z,1.92
2022-12-19T19:53:29.556Z,2.08
2022-12-19T19:55:57.629Z,1.77
2022-12-19T19:58:25.434Z,2.00
2022-12-19T20:00:54.697Z,1.10
2022-12-19T20:03:23.684Z,1.48
2022-12-19T20:05:51.803Z,0.90
2022-12-19T20:08:19.519Z,0.90
2022-12-19T20:10:54.226Z,0.90
2022-12-19T20:13:21.950Z,0.80
2022-12-19T20:15:50.250Z,1.10
2022-12-19T20:18:19.780Z,1.08
2022-12-19T20:20:48.418Z,1.10
2022-12-19T20:23:16.614Z,1.08
2022-12-19T20:25:44.506Z,1.00
2022-12-19T20:28:12.236Z,1.20
2022-12-19T20:30:39.892Z,1.38
2022-12-19T20:33:07.817Z,1.13
2022-12-19T20:35:37.343Z,1.27
2022-12-19T20:38:05.045Z,1.40
2022-12-19T20:40:32.790Z,1.45
2022-12-19T20:43:00.536Z,1.20
2022-12-19T20:45:28.135Z,1.02
2022-12-19T20:47:56.366Z,1.13
2022-12-19T20:50:24.066Z,1.13
2022-12-19T20:52:53.008Z,1.10
2022-12-19T20:55:20.677Z,0.95
2022-12-19T20:57:48.402Z,1.27
2022-12-19T21:00:17.857Z,1.17
2022-12-19T21:03:25.876Z,1.00
2022-12-19T21:05:33.301Z,1.40
2022-12-19T21:08:02.331Z,0.98
2022-12-19T21:10:30.811Z,1.10
2022-12-19T21:12:58.524Z,1.15
2022-12-19T21:15:26.383Z,0.80
2022-12-19T21:17:54.065Z,0.93
2022-12-19T21:20:21.754Z,0.77
2022-12-19T21:22:49.518Z,0.85
2022-12-19T21:25:18.621Z,1.00
2022-12-19T21:27:46.734Z,1.00
2022-12-19T21:30:14.862Z,1.10
2022-12-19T21:32:42.579Z,1.35
2022-12-19T21:35:10.698Z,1.10
2022-12-19T21:37:43.303Z,1.08
2022-12-19T21:40:11.853Z,0.85
2022-12-19T21:42:40.970Z,1.08
2022-12-19T21:45:09.270Z,0.90
2022-12-19T21:47:39.381Z,1.10
2022-12-19T21:50:07.889Z,0.70
2022-12-19T21:52:35.630Z,1.17
2022-12-19T21:55:03.293Z,1.30
2022-12-19T21:57:31.017Z,0.80
2022-12-19T22:00:00.041Z,1.00
2022-12-19T22:02:27.819Z,1.20
2022-12-19T22:04:55.474Z,0.68
2022-12-19T22:07:23.134Z,1.10
2022-12-19T22:09:50.742Z,0.95
2022-12-19T22:12:18.363Z,0.70
2022-12-19T22:14:46.165Z,0.88
2022-12-19T22:17:15.917Z,1.17
2022-12-19T22:19:43.685Z,0.80
2022-12-19T22:22:11.330Z,1.02
2022-12-19T22:24:39.012Z,0.88
2022-12-19T22:27:06.698Z,1.27
2022-12-19T22:29:36.658Z,0.95
2022-12-19T22:32:04.845Z,1.08
2022-12-19T22:34:34.017Z,1.10
2022-12-19T22:37:01.685Z,0.95
2022-12-19T22:39:29.421Z,1.20
2022-12-19T22:41:57.066Z,0.70
2022-12-19T22:44:25.288Z,0.98
2022-12-19T22:46:52.967Z,1.10
2022-12-19T22:49:20.712Z,1.00
2022-12-19T22:51:50.012Z,1.05
2022-12-19T22:54:17.625Z,1.00
2022-12-19T22:56:45.255Z,0.90
2022-12-19T22:59:12.971Z,1.08
2022-12-19T23:01:41.982Z,1.00
2022-12-19T23:04:11.654Z,0.70
2022-12-19T23:06:39.527Z,1.17
2022-12-19T23:09:09.252Z,1.05
2022-12-19T23:11:37.955Z,0.90
2022-12-19T23:14:07.225Z,1.00
2022-12-19T23:16:35.002Z,0.70
2022-12-19T23:19:02.713Z,0.70
2022-12-19T23:21:30.631Z,0.70
2022-12-19T23:23:58.329Z,0.90
2022-12-19T23:26:28.120Z,0.60
2022-12-19T23:28:58.707Z,1.00
2022-12-19T23:31:27.216Z,0.90
2022-12-19T23:33:55.548Z,1.00
2022-12-19T23:36:45.716Z,0.80
2022-12-19T23:39:11.617Z,1.30
2022-12-19T23:41:40.861Z,1.30
2022-12-19T23:44:09.031Z,1.30
2022-12-19T23:46:36.918Z,0.88
2022-12-19T23:49:04.823Z,1.00
2022-12-19T23:51:32.506Z,1.00
2022-12-19T23:54:00.160Z,0.73
2022-12-19T23:56:28.308Z,0.85
2022-12-19T23:58:57.668Z,1.23
